Time;durP1;ratioP1;P1;durP2;ratioP2;P2;SDS_P1;SDS_P2;PMS_P1;PMS_P2;Temp;Humidity;BMP_temperature;BMP_pressure;BME280_temperature;BME280_humidity;BME280_pressure;Samples;Min_cycle;Max_cycle;Signal;HPM_P1;HPM_P2
2021/12/13 00:01:01;;;;;;;107.95;41.37;;;;;;;6.81;57.39;100989.63;2517358;78;25715;-80
2021/12/13 00:04:34;;;;;;;104.30;38.58;;;;;;;6.80;57.37;100986.15;2527138;77;25153;-82
2021/12/13 00:08:00;;;;;;;92.88;40.15;;;;;;;6.80;57.36;100986.15;2525546;77;25711;-79
2021/12/13 00:11:28;;;;;;;102.00;40.75;;;;;;;6.79;57.35;100992.16;2514599;77;25668;-79
2021/12/13 00:14:53;;;;;;;90.22;39.03;;;;;;;6.79;57.33;101002.52;2514678;77;25598;-79
2021/12/13 00:18:22;;;;;;;100.40;39.88;;;;;;;6.77;57.34;100991.18;2514646;78;25648;-79
2021/12/13 00:22:02;;;;;;;95.97;40.85;;;;;;;6.77;57.31;100988.59;2543409;77;25672;-79
2021/12/13 00:25:28;;;;;;;96.08;38.33;;;;;;;6.77;57.33;100994.18;2554392;77;25608;-80
2021/12/13 00:28:50;;;;;;;99.17;41.02;;;;;;;6.76;57.32;100997.19;2554356;77;25751;-80
2021/12/13 00:32:24;;;;;;;102.67;42.05;;;;;;;6.76;57.33;100996.30;2554085;77;25614;-83
2021/12/13 00:35:53;;;;;;;96.37;39.58;;;;;;;6.76;57.30;101005.38;2554279;77;26279;-79
2021/12/13 00:39:23;;;;;;;;;;;;;;;6.76;57.28;101006.67;2557558;77;25579;-79
2021/12/13 00:42:56;;;;;;;87.72;38.42;;;;;;;6.74;57.29;101000.09;2561036;77;25941;-79
2021/12/13 00:46:19;;;;;;;92.80;38.95;;;;;;;6.73;57.28;100996.15;2561027;77;25612;-78
2021/12/13 00:49:44;;;;;;;98.62;38.50;;;;;;;6.72;57.28;100998.27;2561287;77;25739;-79
2021/12/13 00:53:06;;;;;;;102.40;39.80;;;;;;;6.71;57.27;101001.66;2561021;77;25623;-80
2021/12/13 00:57:04;;;;;;;88.22;38.33;;;;;;;6.70;57.24;101003.77;2537330;77;25590;-82
2021/12/13 01:00:33;;;;;;;90.72;36.33;;;;;;;6.69;57.21;101002.89;2561092;77;25526;-83
2021/12/13 01:03:56;;;;;;;88.75;37.40;;;;;;;6.68;57.20;100998.91;2560642;77;25810;-78
2021/12/13 01:07:48;;;;;;;97.37;41.68;;;;;;;6.66;57.17;100998.84;2537678;77;25612;-78
2021/12/13 01:11:35;;;;;;;87.62;35.88;;;;;;;6.66;57.16;101012.22;2558766;77;25669;-81
2021/12/13 01:15:12;;;;;;;92.80;37.25;;;;;;;6.63;57.16;101012.94;2560012;77;25695;-79
2021/12/13 01:22:55;;;;;;;94.03;38.63;;;;;;;6.62;57.13;100991.75;2560346;77;25694;-79
2021/12/13 01:29:51;;;;;;;86.82;34.70;;;;;;;6.60;57.12;100994.66;2560029;77;25621;-78
2021/12/13 01:33:15;;;;;;;90.60;36.93;;;;;;;6.59;57.12;101009.31;2560457;77;25218;-80
2021/12/13 01:37:02;;;;;;;89.85;34.80;;;;;;;6.59;57.11;101008.43;2561137;77;25634;-79
2021/12/13 01:40:24;;;;;;;89.17;36.48;;;;;;;6.58;57.12;101014.02;2559088;77;25581;-79
2021/12/13 01:43:50;;;;;;;85.05;35.80;;;;;;;6.58;57.11;101015.31;2561269;77;25673;-81
2021/12/13 01:47:16;;;;;;;88.10;36.10;;;;;;;6.59;57.12;101018.38;2561405;77;25634;-79
2021/12/13 01:50:47;;;;;;;84.58;35.17;;;;;;;6.59;57.13;101009.73;2560372;77;25655;-80
2021/12/13 01:54:19;;;;;;;84.90;34.67;;;;;;;6.59;57.12;101006.72;2559973;77;25621;-81
2021/12/13 01:57:48;;;;;;;85.28;36.10;;;;;;;6.59;57.12;101000.25;2560746;77;25744;-80
2021/12/13 02:01:17;;;;;;;87.47;35.17;;;;;;;6.59;57.11;100989.00;2560145;77;25652;-80
2021/12/13 02:04:39;;;;;;;83.03;36.00;;;;;;;6.59;57.11;100983.81;2560858;77;25692;-80
2021/12/13 02:08:12;;;;;;;80.65;34.83;;;;;;;6.60;57.12;100983.88;2560832;77;25712;-80
2021/12/13 02:11:34;;;;;;;84.00;34.25;;;;;;;6.60;57.12;100981.29;2545040;77;25606;-81
2021/12/13 02:18:46;;;;;;;84.92;35.48;;;;;;;6.61;57.13;100981.80;2542203;77;25632;-80
2021/12/13 02:22:38;;;;;;;75.62;35.68;;;;;;;6.61;57.12;100986.97;2542459;77;25629;-80
2021/12/13 02:26:01;;;;;;;79.58;34.18;;;;;;;6.62;57.11;100994.34;2542193;77;25643;-79
2021/12/13 02:29:35;;;;;;;85.77;35.58;;;;;;;6.62;57.10;100994.34;2542743;77;25582;-81
2021/12/13 02:32:50;;;;;;;83.72;34.67;;;;;;;6.62;57.10;101001.70;2541162;77;25626;-80
2021/12/13 02:36:16;;;;;;;77.95;33.30;;;;;;;6.63;57.11;100993.10;2542897;77;25594;-80
2021/12/13 02:39:45;;;;;;;77.32;35.43;;;;;;;6.63;57.09;100988.33;2542165;77;25669;-81
2021/12/13 02:43:14;;;;;;;80.47;33.58;;;;;;;6.64;57.10;100988.80;2542310;77;26082;-80
2021/12/13 02:46:38;;;;;;;70.67;32.38;;;;;;;6.64;57.11;100992.69;2542752;77;25912;-79
2021/12/13 02:50:00;;;;;;;74.37;31.52;;;;;;;6.65;57.13;100989.31;2542718;77;25813;-79
2021/12/13 02:53:27;;;;;;;74.65;32.53;;;;;;;6.65;57.09;100990.98;2542453;77;25598;-79
2021/12/13 02:56:56;;;;;;;76.60;32.95;;;;;;;6.65;57.08;101000.05;2542054;77;25594;-79
2021/12/13 03:00:32;;;;;;;;;;;;;;;6.65;57.07;101002.64;2543170;77;25587;-80
2021/12/13 03:03:58;;;;;;;66.77;29.25;;;;;;;6.63;57.08;100999.58;2542638;77;25163;-81
2021/12/13 03:07:33;;;;;;;75.03;30.50;;;;;;;6.63;57.08;100998.69;2542721;77;26222;-80
2021/12/13 03:10:59;;;;;;;68.92;30.25;;;;;;;6.62;57.07;100993.92;2426431;80;25712;-81
2021/12/13 03:14:28;;;;;;;65.78;29.27;;;;;;;6.63;57.08;100985.33;2425223;81;25808;-78
2021/12/13 03:17:57;;;;;;;69.60;30.35;;;;;;;6.63;57.08;100989.22;2426455;80;30885;-80
2021/12/13 03:21:27;;;;;;;69.53;31.12;;;;;;;6.64;57.08;100997.88;2426146;81;25596;-78
2021/12/13 03:25:10;;;;;;;70.17;29.75;;;;;;;6.63;57.07;100994.39;2425946;81;25747;-81
2021/12/13 03:29:07;;;;;;;66.95;28.80;;;;;;;6.63;57.07;100998.28;2426118;79;25671;-80
2021/12/13 03:33:06;;;;;;;67.17;30.20;;;;;;;6.63;57.06;100987.92;2302542;84;25705;-80
2021/12/13 03:37:09;;;;;;;74.85;32.17;;;;;;;6.63;57.06;101000.88;2222429;89;25691;-81
2021/12/13 03:40:35;;;;;;;64.55;28.45;;;;;;;6.61;57.06;100997.34;2191085;90;25797;-80
2021/12/13 03:44:01;;;;;;;63.98;28.65;;;;;;;6.62;57.04;100991.75;2191111;90;25776;-80
2021/12/13 03:47:34;;;;;;;72.08;29.10;;;;;;;6.61;57.03;100993.83;2231491;86;25625;-79
2021/12/13 03:51:00;;;;;;;68.45;28.83;;;;;;;6.61;57.02;100997.34;2293449;86;25773;-80
2021/12/13 03:54:23;;;;;;;66.15;28.62;;;;;;;6.61;57.01;100999.02;2293354;86;25466;-80
2021/12/13 03:57:50;;;;;;;68.02;29.48;;;;;;;6.59;57.01;100989.88;2293153;86;25377;-80
2021/12/13 04:01:22;;;;;;;67.53;29.80;;;;;;;6.60;57.00;101003.72;2292920;84;25821;-80
2021/12/13 04:04:54;;;;;;;62.93;30.17;;;;;;;6.59;56.98;101007.13;2253250;86;25773;-80
2021/12/13 04:08:20;;;;;;;68.22;30.50;;;;;;;6.59;56.99;100995.48;2329540;84;25279;-79
2021/12/13 04:11:45;;;;;;;72.47;29.00;;;;;;;6.59;56.98;100997.66;2379748;77;25746;-80
2021/12/13 04:15:24;;;;;;;76.90;30.32;;;;;;;6.60;56.95;100993.36;2548092;77;25550;-80
2021/12/13 04:19:10;;;;;;;67.37;28.77;;;;;;;6.60;56.93;101007.61;2595162;76;25590;-79
2021/12/13 04:22:36;;;;;;;71.28;29.00;;;;;;;6.59;56.91;101000.66;2545570;77;25595;-81
2021/12/13 04:26:01;;;;;;;67.25;28.65;;;;;;;6.58;56.93;100989.79;2548039;77;25700;-80
2021/12/13 04:29:27;;;;;;;76.02;29.57;;;;;;;6.58;56.90;100993.67;2595782;75;25180;-82
2021/12/13 04:32:53;;;;;;;70.32;29.27;;;;;;;6.58;56.90;100998.48;2545415;77;25607;-81
2021/12/13 04:36:35;;;;;;;66.37;29.18;;;;;;;6.57;56.90;100992.79;2548174;76;25670;-80
2021/12/13 04:40:01;;;;;;;71.72;30.02;;;;;;;6.57;56.89;100995.80;2538982;77;25663;-79
2021/12/13 04:43:23;;;;;;;69.10;28.05;;;;;;;6.57;56.87;100997.09;2547634;77;25582;-80
2021/12/13 04:46:49;;;;;;;66.80;28.95;;;;;;;6.56;56.87;100994.91;2547962;77;25799;-80
2021/12/13 04:50:18;;;;;;;77.32;32.03;;;;;;;6.56;56.83;100992.32;2547810;77;25671;-80
2021/12/13 04:53:47;;;;;;;68.30;29.32;;;;;;;6.55;56.85;100999.63;2548241;77;25773;-79
2021/12/13 04:57:08;;;;;;;68.92;30.20;;;;;;;6.55;56.83;101003.50;2548145;76;25607;-81
2021/12/13 05:00:38;;;;;;;71.10;29.35;;;;;;;6.55;56.81;101012.98;2548190;76;25897;-80
2021/12/13 05:04:01;;;;;;;;;;;;;;;6.53;56.80;101002.53;2550445;77;25558;-79
2021/12/13 05:07:25;;;;;;;63.55;29.63;;;;;;;6.53;56.79;101001.64;2530484;78;25665;-79
2021/12/13 05:10:50;;;;;;;61.45;27.62;;;;;;;6.52;56.80;101006.35;2549317;77;25595;-80
2021/12/13 05:14:11;;;;;;;70.20;29.95;;;;;;;6.51;56.82;101012.33;2554889;77;25631;-82
2021/12/13 05:17:43;;;;;;;67.87;28.85;;;;;;;6.51;56.81;101015.80;2555273;77;25169;-80
2021/12/13 05:21:09;;;;;;;72.53;30.05;;;;;;;6.52;56.81;101024.48;2555417;76;26272;-81
2021/12/13 05:24:35;;;;;;;62.95;27.60;;;;;;;6.52;56.80;101033.14;2555277;76;25578;-81
2021/12/13 05:28:01;;;;;;;65.72;27.37;;;;;;;6.51;56.79;101020.98;2554355;76;25666;-80
2021/12/13 05:31:25;;;;;;;70.05;29.50;;;;;;;6.53;56.79;101015.89;2554717;76;25644;-79
2021/12/13 05:34:51;;;;;;;70.65;28.70;;;;;;;6.53;56.79;101019.78;2554023;77;25689;-80
2021/12/13 05:38:30;;;;;;;68.15;28.35;;;;;;;6.53;56.78;101023.25;2599019;76;25654;-80
2021/12/13 05:41:56;;;;;;;66.62;27.87;;;;;;;6.53;56.79;101019.78;2555270;77;31935;-81
2021/12/13 05:45:41;;;;;;;66.62;28.07;;;;;;;6.53;56.78;101024.95;2551258;77;25599;-81
2021/12/13 05:49:06;;;;;;;67.62;28.67;;;;;;;6.53;56.79;101041.39;2506068;78;25849;-79
2021/12/13 05:52:36;;;;;;;66.95;27.22;;;;;;;6.53;56.78;101046.98;2479589;78;25673;-81
2021/12/13 05:56:16;;;;;;;71.80;27.52;;;;;;;6.53;56.80;101042.68;2506570;77;25741;-79
2021/12/13 06:00:08;;;;;;;66.75;26.70;;;;;;;6.53;56.80;101052.16;2560406;77;25555;-80
2021/12/13 06:03:36;;;;;;;70.35;28.17;;;;;;;6.53;56.80;101056.92;2512391;77;25685;-81
2021/12/13 06:06:58;;;;;;;71.28;28.67;;;;;;;6.54;56.78;101055.22;2514043;77;25696;-81
2021/12/13 06:10:21;;;;;;;69.42;29.20;;;;;;;6.54;56.79;101061.70;2521489;77;25741;-81
2021/12/13 06:13:50;;;;;;;67.42;28.50;;;;;;;6.54;56.79;101056.11;2521796;78;25738;-82
2021/12/13 06:17:21;;;;;;;73.47;27.40;;;;;;;6.55;56.80;101063.09;2521231;78;25803;-81
2021/12/13 06:21:03;;;;;;;65.92;27.22;;;;;;;6.55;56.76;101066.98;2513920;78;25731;-80
2021/12/13 06:24:32;;;;;;;61.28;25.52;;;;;;;6.56;56.78;101066.56;2513990;78;25843;-80
2021/12/13 06:28:00;;;;;;;63.17;24.87;;;;;;;6.56;56.77;101069.16;2550821;77;25157;-81
2021/12/13 06:31:26;;;;;;;63.92;26.20;;;;;;;6.58;56.77;101075.28;2550429;77;25632;-81
2021/12/13 06:34:47;;;;;;;75.32;28.42;;;;;;;6.56;56.77;101074.33;2542470;77;25594;-81
2021/12/13 06:38:34;;;;;;;61.58;25.30;;;;;;;6.57;56.76;101080.87;2545427;77;25613;-79
2021/12/13 06:42:07;;;;;;;59.80;24.95;;;;;;;6.57;56.77;101088.64;2528073;77;25897;-81
2021/12/13 06:45:35;;;;;;;69.25;28.17;;;;;;;6.58;56.76;101085.27;2517021;77;25689;-81
2021/12/13 06:49:17;;;;;;;64.75;26.65;;;;;;;6.59;56.77;101092.62;2520469;77;25713;-81
2021/12/13 06:52:39;;;;;;;72.78;28.95;;;;;;;6.60;56.76;101095.69;2550494;77;25676;-83
2021/12/13 06:56:20;;;;;;;68.05;25.95;;;;;;;6.60;56.75;101089.22;2550722;77;25633;-81
2021/12/13 06:59:56;;;;;;;66.53;27.32;;;;;;;6.61;56.73;101102.27;2551050;77;25638;-80
2021/12/13 07:03:32;;;;;;;62.35;27.13;;;;;;;6.60;56.70;101093.98;2549489;76;25676;-78
2021/12/13 07:06:54;;;;;;;70.03;28.92;;;;;;;6.61;56.72;101105.23;2549353;77;25662;-86
2021/12/13 07:10:20;;;;;;;64.72;27.17;;;;;;;6.62;56.71;101107.92;2550249;77;25918;-85
2021/12/13 07:13:52;;;;;;;63.65;27.20;;;;;;;6.63;56.69;101110.11;2501762;79;25628;-81
2021/12/13 07:17:30;;;;;;;64.65;28.23;;;;;;;6.65;56.69;101111.47;2500167;79;25654;-83
2021/12/13 07:20:57;;;;;;;62.13;26.50;;;;;;;6.66;56.68;101109.38;2502281;78;25658;-82
2021/12/13 07:24:46;;;;;;;65.42;26.68;;;;;;;6.67;56.67;101113.33;2501409;79;25613;-87
2021/12/13 07:28:07;;;;;;;64.70;26.30;;;;;;;6.68;56.67;101120.28;2407434;82;25608;-85
2021/12/13 07:31:28;;;;;;;69.00;27.67;;;;;;;6.69;56.64;101125.09;2409214;82;26073;-88
2021/12/13 07:35:13;;;;;;;65.80;28.05;;;;;;;6.71;56.66;101126.03;2409323;82;26578;-80
2021/12/13 07:38:52;;;;;;;65.92;27.70;;;;;;;6.72;56.61;101125.24;2384066;82;25777;-83
2021/12/13 07:42:14;;;;;;;55.83;24.30;;;;;;;7.28;60.89;101131.05;2408713;82;25688;-81
2021/12/13 07:45:46;;;;;;;60.28;24.27;;;;;;;7.47;59.82;101136.31;2409052;82;26422;-81
2021/12/13 07:49:12;;;;;;;73.30;27.13;;;;;;;7.45;59.64;101138.34;2409404;82;25720;-83
2021/12/13 07:52:37;;;;;;;75.57;28.57;;;;;;;7.40;59.44;101138.14;2409404;82;25717;-79
2021/12/13 07:55:58;;;;;;;66.20;26.55;;;;;;;7.37;59.29;101142.30;2383634;82;25896;-82
2021/12/13 07:59:27;;;;;;;75.05;28.52;;;;;;;7.33;59.18;101145.14;2409427;82;25738;-82
2021/12/13 08:03:00;;;;;;;74.35;26.65;;;;;;;7.30;59.08;101150.18;2409245;82;25806;-79
2021/12/13 08:06:26;;;;;;;73.92;28.23;;;;;;;7.29;59.00;101154.90;2456322;80;25663;-81
2021/12/13 08:09:59;;;;;;;73.52;27.62;;;;;;;7.27;58.91;101152.63;2462547;80;25580;-87
2021/12/13 08:13:28;;;;;;;66.82;25.20;;;;;;;7.26;58.83;101163.82;2482671;79;25659;-84
2021/12/13 08:16:49;;;;;;;;;;;;;;;7.25;58.77;101151.64;2470100;80;26343;-79
2021/12/13 08:20:15;;;;;;;66.47;27.47;;;;;;;7.24;58.70;101155.06;2468217;80;25698;-80
2021/12/13 08:23:51;;;;;;;64.12;28.35;;;;;;;7.23;58.60;101152.00;2460356;79;25737;-79
2021/12/13 08:27:33;;;;;;;74.22;28.80;;;;;;;7.22;58.53;101150.19;2512137;78;25745;-80
2021/12/13 08:30:57;;;;;;;67.20;26.30;;;;;;;7.22;58.45;101152.41;2509629;77;25690;-83
2021/12/13 08:34:35;;;;;;;77.25;27.40;;;;;;;7.23;58.39;101157.18;2487346;79;25646;-83
2021/12/13 08:37:59;;;;;;;65.97;26.17;;;;;;;7.22;58.33;101163.16;2487542;79;25573;-86
2021/12/13 08:41:31;;;;;;;61.73;27.25;;;;;;;7.22;58.29;101159.27;2487574;79;25707;-80
2021/12/13 08:45:03;;;;;;;64.17;25.43;;;;;;;7.22;58.24;101150.19;2465927;80;25671;-85
2021/12/13 08:48:25;;;;;;;64.85;28.32;;;;;;;7.22;58.17;101155.00;2485810;79;26092;-87
2021/12/13 08:52:01;;;;;;;67.00;28.12;;;;;;;7.23;58.11;101150.70;2487495;79;25658;-81
2021/12/13 08:55:28;;;;;;;65.08;27.22;;;;;;;7.23;58.06;101163.66;2468267;80;25608;-86
2021/12/13 08:58:59;;;;;;;67.22;26.45;;;;;;;7.25;57.98;101164.61;2487158;79;25674;-84
2021/12/13 09:02:23;;;;;;;60.10;25.32;;;;;;;7.26;57.92;101170.30;2487434;79;25953;-83
2021/12/13 09:06:13;;;;;;;74.67;29.25;;;;;;;7.28;57.84;101164.77;2486740;79;25533;-87
2021/12/13 09:09:36;;;;;;;65.95;26.68;;;;;;;7.28;57.79;101165.65;2509900;78;26232;-85
2021/12/13 09:12:57;;;;;;;73.12;28.38;;;;;;;7.31;57.72;101161.91;2511935;78;25638;-86
2021/12/13 09:16:23;;;;;;;64.42;26.12;;;;;;;7.32;57.68;101161.50;2514223;78;25699;-86
2021/12/13 09:19:50;;;;;;;62.05;26.45;;;;;;;7.35;57.61;101165.55;2513781;78;25595;-85
2021/12/13 09:23:19;;;;;;;62.93;25.57;;;;;;;7.36;57.57;101164.75;2513438;78;25595;-88
2021/12/13 09:26:43;;;;;;;75.30;29.85;;;;;;;7.40;57.54;101163.20;2512983;78;25891;-84
2021/12/13 09:30:27;;;;;;;78.33;28.65;;;;;;;7.52;59.74;101158.58;2512942;78;26178;-86
2021/12/13 09:33:54;;;;;;;73.92;30.30;;;;;;;8.36;63.93;101159.03;2387654;82;25731;-89
2021/12/13 09:37:15;;;;;;;73.87;30.00;;;;;;;8.86;61.82;101158.68;2387892;82;25687;-88
2021/12/13 09:40:40;;;;;;;74.55;32.00;;;;;;;8.84;61.22;101153.84;2387791;82;25740;-86
2021/12/13 09:44:14;;;;;;;76.10;29.82;;;;;;;8.74;60.91;101149.95;2387927;82;25829;-85
2021/12/13 09:47:40;;;;;;;67.72;26.30;;;;;;;8.64;60.72;101156.88;2387643;82;25685;-84
2021/12/13 09:51:07;;;;;;;76.07;30.25;;;;;;;8.55;60.53;101155.58;2387662;82;25932;-83
2021/12/13 09:54:34;;;;;;;81.55;28.52;;;;;;;8.47;60.30;101150.02;2388104;82;25739;-86
2021/12/13 09:58:06;;;;;;;75.72;30.92;;;;;;;8.42;60.09;101147.65;2387141;82;25756;-86
2021/12/13 10:01:30;;;;;;;;;;;;;;;8.36;59.87;101149.52;2388415;82;25875;-81
2021/12/13 10:04:53;;;;;;;75.47;31.10;;;;;;;8.29;59.35;101152.25;2388079;82;25844;-82
2021/12/13 10:08:25;;;;;;;85.12;31.45;;;;;;;8.12;58.93;101148.42;2387593;82;25758;-82
2021/12/13 10:11:58;;;;;;;73.15;30.92;;;;;;;8.00;58.68;101153.54;2498445;78;25654;-82
2021/12/13 10:15:30;;;;;;;69.03;29.30;;;;;;;7.93;58.51;101152.78;2515573;78;25591;-85
2021/12/13 10:18:54;;;;;;;77.27;29.42;;;;;;;7.95;59.15;101154.14;2514610;78;25685;-83
2021/12/13 10:22:20;;;;;;;69.75;29.30;;;;;;;8.02;59.38;101154.89;2515435;78;25603;-85
2021/12/13 10:25:46;;;;;;;86.90;30.85;;;;;;;8.04;59.08;101148.08;2515779;78;25662;-84
2021/12/13 10:29:11;;;;;;;71.22;28.75;;;;;;;7.91;58.43;101156.11;2515424;78;25651;-84
2021/12/13 10:32:37;;;;;;;79.70;29.95;;;;;;;7.91;59.37;101152.22;2515411;78;25888;-86
2021/12/13 10:36:01;;;;;;;89.67;33.23;;;;;;;8.00;59.17;101153.95;2515560;78;25651;-87
2021/12/13 10:39:29;;;;;;;88.40;33.50;;;;;;;7.90;58.13;101154.34;2515152;78;25667;-84
2021/12/13 10:42:56;;;;;;;97.70;37.28;;;;;;;7.83;58.11;101165.23;2515448;78;25761;-83
2021/12/13 10:46:25;;;;;;;91.87;35.03;;;;;;;7.78;57.96;101158.54;2505872;78;25695;-81
2021/12/13 10:49:50;;;;;;;90.55;34.13;;;;;;;7.75;57.78;101159.27;2496519;78;26254;-85
2021/12/13 10:53:21;;;;;;;92.57;34.80;;;;;;;7.72;57.66;101163.02;2502742;78;25608;-85
2021/12/13 10:56:50;;;;;;;93.37;37.25;;;;;;;7.66;57.47;101151.45;2527016;78;25896;-84
2021/12/13 11:00:22;;;;;;;91.12;34.88;;;;;;;7.60;57.36;101152.08;2524950;78;26302;-83
2021/12/13 11:03:43;;;;;;;90.45;33.63;;;;;;;7.53;57.21;101147.41;2522347;78;26552;-82
2021/12/13 11:07:08;;;;;;;99.13;35.85;;;;;;;7.47;57.17;101145.40;2477622;78;25704;-92
2021/12/13 11:10:38;;;;;;;97.95;36.58;;;;;;;7.43;57.17;101147.38;2477608;79;25684;-84
2021/12/13 11:14:02;;;;;;;;;;;;;;;7.39;56.98;101149.34;2505234;77;25662;-83
2021/12/13 11:17:27;;;;;;;93.50;35.50;;;;;;;7.35;56.88;101147.39;2514454;78;25670;-84
2021/12/13 11:20:50;;;;;;;91.65;37.48;;;;;;;7.29;56.85;101144.52;2514620;78;25615;-85
2021/12/13 11:24:20;;;;;;;84.32;35.00;;;;;;;7.27;56.80;101142.25;2515153;78;25559;-82
2021/12/13 11:27:41;;;;;;;89.50;35.28;;;;;;;7.24;56.76;101143.39;2514876;77;25576;-85
2021/12/13 11:31:13;;;;;;;98.25;34.73;;;;;;;7.23;56.74;101142.92;2514766;78;25624;-83
2021/12/13 11:35:10;;;;;;;98.22;36.73;;;;;;;7.22;56.63;101146.30;2511348;77;25994;-84
2021/12/13 11:39:09;;;;;;;84.05;34.33;;;;;;;7.18;56.51;101143.08;2515032;78;25618;-83
2021/12/13 11:43:04;;;;;;;100.25;37.42;;;;;;;7.13;56.45;101148.05;2324728;83;25728;-83
2021/12/13 11:46:59;;;;;;;84.52;35.73;;;;;;;7.10;56.44;101153.97;2347982;84;26178;-81
2021/12/13 11:51:11;;;;;;;91.50;35.78;;;;;;;7.07;56.32;101149.92;2347641;84;25663;-81
2021/12/13 11:55:12;;;;;;;95.60;35.48;;;;;;;7.01;56.26;101150.91;2348202;84;25751;-83
2021/12/13 11:59:10;;;;;;;84.20;32.33;;;;;;;6.97;56.18;101154.58;2339726;84;25709;-83
2021/12/13 12:02:56;;;;;;;81.53;30.65;;;;;;;6.97;57.28;101154.16;2339724;84;25362;-81
2021/12/13 12:07:00;;;;;;;76.47;31.75;;;;;;;7.28;57.69;101142.72;2339782;84;25872;-83
2021/12/13 12:10:53;;;;;;;88.78;34.67;;;;;;;7.32;57.05;101137.78;2339271;83;25758;-82
2021/12/13 12:14:16;;;;;;;88.50;35.10;;;;;;;7.25;56.80;101139.97;2339369;84;25699;-83
2021/12/13 12:17:38;;;;;;;91.47;34.65;;;;;;;7.15;56.66;101152.89;2421579;80;25237;-82
2021/12/13 12:21:43;;;;;;;80.07;34.73;;;;;;;7.09;56.57;101148.72;2468135;79;25704;-83
2021/12/13 12:25:05;;;;;;;84.60;36.63;;;;;;;7.02;56.45;101152.70;2497770;78;25719;-81
2021/12/13 12:28:36;;;;;;;91.02;33.70;;;;;;;6.99;56.36;101152.96;2476084;79;25666;-83
2021/12/13 12:32:05;;;;;;;83.12;33.30;;;;;;;6.94;56.28;101151.41;2502709;79;25283;-82
2021/12/13 12:35:31;;;;;;;79.62;34.53;;;;;;;6.90;56.20;101150.78;2516690;77;25772;-81
2021/12/13 12:39:40;;;;;;;79.47;33.05;;;;;;;6.88;56.09;101150.22;2550625;77;26244;-82
2021/12/13 12:43:10;;;;;;;88.80;33.83;;;;;;;6.83;55.98;101147.40;2550656;77;25636;-84
2021/12/13 12:46:32;;;;;;;;;;;;;;;6.79;55.87;101146.77;2553485;77;25593;-80
2021/12/13 12:50:14;;;;;;;87.35;35.92;;;;;;;6.76;55.84;101151.38;2555868;77;25606;-83
2021/12/13 12:53:52;;;;;;;89.00;34.67;;;;;;;6.72;55.75;101147.27;2548209;77;26349;-82
2021/12/13 12:57:13;;;;;;;91.78;35.05;;;;;;;6.69;55.63;101145.41;2504872;77;26346;-80
2021/12/13 13:00:36;;;;;;;89.17;34.88;;;;;;;6.66;55.68;101155.61;2531917;77;25608;-80
2021/12/13 13:04:23;;;;;;;82.00;33.70;;;;;;;6.62;55.52;101154.97;2524829;77;25134;-80
2021/12/13 13:07:45;;;;;;;85.60;35.92;;;;;;;6.60;55.49;101154.88;2556150;75;25546;-82
2021/12/13 13:14:55;;;;;;;84.52;34.03;;;;;;;6.59;55.35;101159.98;2553071;77;25585;-82
2021/12/13 13:18:26;;;;;;;90.75;34.08;;;;;;;6.62;55.24;101161.45;2524729;77;26288;-82
2021/12/13 13:21:48;;;;;;;96.30;36.93;;;;;;;6.63;55.17;101168.40;2553824;77;25584;-85
2021/12/13 13:25:14;;;;;;;93.95;35.95;;;;;;;6.64;55.08;101162.39;2554500;77;25569;-81
2021/12/13 13:28:47;;;;;;;81.50;32.78;;;;;;;6.65;55.02;101169.38;2551954;77;25847;-80
2021/12/13 13:32:12;;;;;;;88.47;36.05;;;;;;;6.65;54.89;101167.17;2554590;77;25719;-81
2021/12/13 13:35:35;;;;;;;85.95;35.43;;;;;;;6.65;54.86;101173.27;2554222;76;25639;-83
2021/12/13 13:39:13;;;;;;;95.87;36.68;;;;;;;6.64;54.78;101168.87;2557881;77;25579;-86
2021/12/13 13:42:47;;;;;;;85.62;34.13;;;;;;;6.65;54.70;101172.34;2553676;77;25277;-82
2021/12/13 13:46:10;;;;;;;83.05;34.43;;;;;;;6.62;54.62;101170.52;2553876;77;25557;-82
2021/12/13 13:49:31;;;;;;;91.45;35.15;;;;;;;6.59;54.62;101175.53;2553790;77;26356;-83
2021/12/13 13:53:07;;;;;;;86.10;34.05;;;;;;;6.58;54.55;101173.35;2553305;77;25658;-80
2021/12/13 13:56:36;;;;;;;88.33;34.60;;;;;;;6.57;54.51;101183.63;2552353;76;25302;-83
2021/12/13 13:59:59;;;;;;;84.50;33.78;;;;;;;6.55;54.48;101183.55;2553605;77;25616;-82
2021/12/13 14:03:37;;;;;;;83.75;35.23;;;;;;;6.54;54.45;101191.23;2552209;77;25580;-80
2021/12/13 14:07:10;;;;;;;87.45;35.50;;;;;;;6.52;54.42;101183.39;2560770;76;25619;-81
2021/12/13 14:10:33;;;;;;;86.65;34.00;;;;;;;6.51;54.31;101187.17;2553433;77;25591;-83
2021/12/13 14:13:59;;;;;;;91.85;34.30;;;;;;;6.48;54.33;101193.11;2563947;76;25628;-80
2021/12/13 14:17:53;;;;;;;90.05;36.60;;;;;;;6.46;54.31;101184.36;2593320;76;25721;-86
2021/12/13 14:21:24;;;;;;;96.37;36.10;;;;;;;6.46;54.30;101188.24;2591391;75;25628;-84
2021/12/13 14:24:47;;;;;;;89.85;36.75;;;;;;;6.44;54.25;101189.84;2592455;75;25567;-85
2021/12/13 14:28:12;;;;;;;94.58;36.17;;;;;;;6.43;54.25;101192.38;2545523;77;25613;-86
2021/12/13 14:31:49;;;;;;;100.87;36.98;;;;;;;6.40;54.26;101194.39;2545358;77;25598;-85
2021/12/13 14:35:24;;;;;;;102.07;37.58;;;;;;;6.38;54.26;101189.55;2545846;77;25707;-87
2021/12/13 14:39:10;;;;;;;86.42;36.13;;;;;;;6.35;54.24;101191.97;2544487;77;25688;-85
2021/12/13 14:42:31;;;;;;;85.65;33.15;;;;;;;6.34;54.21;101186.28;2561551;75;25153;-83
2021/12/13 14:45:56;;;;;;;96.30;35.58;;;;;;;6.32;54.19;101187.92;2592435;75;25624;-83
2021/12/13 14:49:33;;;;;;;88.70;34.80;;;;;;;6.31;54.21;101200.36;2555629;75;25701;-85
2021/12/13 14:53:05;;;;;;;96.80;37.05;;;;;;;6.31;54.17;101199.06;2489420;79;25688;-85
2021/12/13 14:56:29;;;;;;;85.50;36.03;;;;;;;6.28;54.17;101195.05;2489247;79;25965;-85
2021/12/13 14:59:56;;;;;;;96.22;35.33;;;;;;;6.25;54.16;101189.70;2488940;79;25801;-84
2021/12/13 15:03:22;;;;;;;86.50;34.30;;;;;;;6.23;54.19;101192.59;2487373;78;25741;-82
2021/12/13 15:06:48;;;;;;;87.00;35.00;;;;;;;6.21;54.13;101196.79;2512676;78;25807;-85
2021/12/13 15:10:25;;;;;;;74.72;33.02;;;;;;;6.20;54.17;101202.38;2472832;78;25855;-83
2021/12/13 15:13:52;;;;;;;92.70;38.25;;;;;;;6.19;54.16;101207.08;2407197;81;25788;-85
2021/12/13 15:17:27;;;;;;;90.60;35.80;;;;;;;6.19;54.15;101223.02;2426819;81;25761;-83
2021/12/13 15:20:53;;;;;;;95.85;37.65;;;;;;;6.15;54.15;101212.50;2428655;81;26171;-82
2021/12/13 15:24:19;;;;;;;92.60;36.05;;;;;;;6.14;54.13;101227.92;2456651;80;25664;-83
2021/12/13 15:27:42;;;;;;;90.07;36.65;;;;;;;6.13;54.13;101220.98;2453703;80;26377;-84
2021/12/13 15:31:11;;;;;;;102.53;36.63;;;;;;;6.12;54.15;101225.67;2454464;80;25852;-85
2021/12/13 15:34:40;;;;;;;95.85;36.55;;;;;;;6.12;54.14;101232.15;2454715;80;25657;-84
2021/12/13 15:38:13;;;;;;;96.25;35.98;;;;;;;6.11;54.14;101236.84;2454650;80;25726;-82
2021/12/13 15:41:36;;;;;;;99.62;38.40;;;;;;;6.10;54.14;101229.87;2454528;80;25756;-84
2021/12/13 15:45:29;;;;;;;103.75;37.63;;;;;;;6.10;54.15;101233.75;2388422;80;25705;-83
2021/12/13 15:52:36;;;;;;;98.27;39.58;;;;;;;6.06;54.14;101230.52;2557529;77;25699;-86
2021/12/13 15:56:02;;;;;;;92.10;36.13;;;;;;;6.03;54.15;101229.93;2539726;77;25839;-84
2021/12/13 15:59:30;;;;;;;96.72;38.92;;;;;;;6.02;54.18;101229.45;2511356;78;25693;-84
2021/12/13 16:02:52;;;;;;;87.27;38.05;;;;;;;5.99;54.18;101238.34;2463719;80;26168;-82
2021/12/13 16:06:15;;;;;;;102.78;38.78;;;;;;;5.99;54.19;101242.22;2511915;78;25670;-84
2021/12/13 16:09:47;;;;;;;110.70;38.92;;;;;;;5.97;54.20;101246.41;2547779;75;25577;-84
2021/12/13 16:13:08;;;;;;;95.05;38.33;;;;;;;5.97;54.21;101248.11;2552789;76;25618;-84
2021/12/13 16:16:31;;;;;;;109.67;37.93;;;;;;;5.98;54.22;101251.20;2553877;77;25701;-82
2021/12/13 16:20:33;;;;;;;92.25;37.80;;;;;;;5.98;54.19;101252.50;2554600;77;25610;-84
2021/12/13 16:24:05;;;;;;;110.80;40.70;;;;;;;5.96;54.18;101248.92;2554136;77;25161;-84
2021/12/13 16:27:26;;;;;;;111.77;41.68;;;;;;;5.94;54.24;101251.44;2564755;76;25654;-80
2021/12/13 16:31:01;;;;;;;109.72;41.10;;;;;;;5.93;54.24;101258.70;2554619;77;25604;-84